sensor_id;sensor_type;location;lat;lon;timestamp;P1;durP1;ratioP1;P2;durP2;ratioP2
26502;SDS011;14177;51.520;6.764;2023-04-29T00:01:30;42.78;;;20.65;;
26502;SDS011;14177;51.520;6.764;2023-04-29T00:03:57;44.17;;;21.17;;
26502;SDS011;14177;51.520;6.764;2023-04-29T00:06:25;41.10;;;21.02;;
26502;SDS011;14177;51.520;6.764;2023-04-29T00:08:52;45.30;;;21.92;;
26502;SDS011;14177;51.520;6.764;2023-04-29T00:11:19;46.00;;;23.58;;
26502;SDS011;14177;51.520;6.764;2023-04-29T00:13:46;41.05;;;22.70;;
26502;SDS011;14177;51.520;6.764;2023-04-29T00:16:12;43.25;;;22.27;;
26502;SDS011;14177;51.520;6.764;2023-04-29T00:18:40;47.78;;;23.25;;
26502;SDS011;14177;51.520;6.764;2023-04-29T00:21:07;49.72;;;25.42;;
26502;SDS011;14177;51.520;6.764;2023-04-29T00:23:34;47.67;;;23.77;;
26502;SDS011;14177;51.520;6.764;2023-04-29T00:26:01;46.78;;;23.40;;
26502;SDS011;14177;51.520;6.764;2023-04-29T00:28:28;42.83;;;23.58;;
26502;SDS011;14177;51.520;6.764;2023-04-29T00:30:55;44.63;;;23.30;;
26502;SDS011;14177;51.520;6.764;2023-04-29T00:33:23;45.60;;;23.58;;
26502;SDS011;14177;51.520;6.764;2023-04-29T00:35:49;48.65;;;24.77;;
26502;SDS011;14177;51.520;6.764;2023-04-29T00:38:17;46.70;;;23.98;;
26502;SDS011;14177;51.520;6.764;2023-04-29T00:40:43;56.80;;;26.90;;
26502;SDS011;14177;51.520;6.764;2023-04-29T00:43:11;51.58;;;26.67;;
26502;SDS011;14177;51.520;6.764;2023-04-29T00:45:38;55.97;;;27.20;;
26502;SDS011;14177;51.520;6.764;2023-04-29T00:48:05;64.20;;;31.05;;
26502;SDS011;14177;51.520;6.764;2023-04-29T00:50:33;72.35;;;32.20;;
26502;SDS011;14177;51.520;6.764;2023-04-29T00:53:01;61.00;;;28.75;;
26502;SDS011;14177;51.520;6.764;2023-04-29T00:55:30;62.53;;;28.23;;
26502;SDS011;14177;51.520;6.764;2023-04-29T00:57:58;62.97;;;30.20;;
26502;SDS011;14177;51.520;6.764;2023-04-29T01:00:27;69.07;;;31.10;;
26502;SDS011;14177;51.520;6.764;2023-04-29T01:02:55;63.22;;;28.67;;
26502;SDS011;14177;51.520;6.764;2023-04-29T01:05:25;72.40;;;32.58;;
26502;SDS011;14177;51.520;6.764;2023-04-29T01:11:00;72.13;;;32.22;;
26502;SDS011;14177;51.520;6.764;2023-04-29T01:13:51;69.72;;;30.48;;
26502;SDS011;14177;51.520;6.764;2023-04-29T01:16:41;67.05;;;30.85;;
26502;SDS011;14177;51.520;6.764;2023-04-29T01:22:13;70.13;;;30.08;;
26502;SDS011;14177;51.520;6.764;2023-04-29T01:24:43;71.78;;;31.95;;
26502;SDS011;14177;51.520;6.764;2023-04-29T01:38:30;66.95;;;27.25;;
26502;SDS011;14177;51.520;6.764;2023-04-29T01:41:23;63.03;;;26.95;;
26502;SDS011;14177;51.520;6.764;2023-04-29T01:44:20;58.88;;;27.15;;
26502;SDS011;14177;51.520;6.764;2023-04-29T01:46:52;55.50;;;26.08;;
26502;SDS011;14177;51.520;6.764;2023-04-29T01:49:28;62.75;;;26.42;;
26502;SDS011;14177;51.520;6.764;2023-04-29T01:51:55;53.58;;;25.65;;
26502;SDS011;14177;51.520;6.764;2023-04-29T01:54:22;59.53;;;25.90;;
26502;SDS011;14177;51.520;6.764;2023-04-29T01:56:49;51.33;;;25.70;;
26502;SDS011;14177;51.520;6.764;2023-04-29T02:02:04;50.83;;;23.48;;
26502;SDS011;14177;51.520;6.764;2023-04-29T02:04:33;49.58;;;23.80;;
26502;SDS011;14177;51.520;6.764;2023-04-29T02:07:01;50.35;;;23.85;;
26502;SDS011;14177;51.520;6.764;2023-04-29T02:09:29;54.63;;;23.67;;
26502;SDS011;14177;51.520;6.764;2023-04-29T02:12:04;45.80;;;22.38;;
26502;SDS011;14177;51.520;6.764;2023-04-29T02:14:31;45.47;;;21.98;;
26502;SDS011;14177;51.520;6.764;2023-04-29T02:17:02;43.90;;;21.00;;
26502;SDS011;14177;51.520;6.764;2023-04-29T02:19:29;44.58;;;21.10;;
26502;SDS011;14177;51.520;6.764;2023-04-29T02:21:56;43.40;;;21.17;;
26502;SDS011;14177;51.520;6.764;2023-04-29T02:24:24;43.47;;;20.73;;
26502;SDS011;14177;51.520;6.764;2023-04-29T02:26:51;41.33;;;21.13;;
26502;SDS011;14177;51.520;6.764;2023-04-29T02:29:18;38.35;;;19.80;;
26502;SDS011;14177;51.520;6.764;2023-04-29T02:31:46;43.78;;;21.73;;
26502;SDS011;14177;51.520;6.764;2023-04-29T02:34:13;39.60;;;19.52;;
26502;SDS011;14177;51.520;6.764;2023-04-29T02:36:39;40.50;;;21.10;;
26502;SDS011;14177;51.520;6.764;2023-04-29T02:39:06;39.60;;;20.00;;
26502;SDS011;14177;51.520;6.764;2023-04-29T02:41:33;37.25;;;19.73;;
26502;SDS011;14177;51.520;6.764;2023-04-29T02:44:00;39.40;;;20.35;;
26502;SDS011;14177;51.520;6.764;2023-04-29T02:46:27;37.10;;;19.27;;
26502;SDS011;14177;51.520;6.764;2023-04-29T02:48:54;33.42;;;17.92;;
26502;SDS011;14177;51.520;6.764;2023-04-29T02:51:21;36.75;;;18.30;;
26502;SDS011;14177;51.520;6.764;2023-04-29T02:53:48;33.75;;;19.15;;
26502;SDS011;14177;51.520;6.764;2023-04-29T02:56:15;36.33;;;20.30;;
26502;SDS011;14177;51.520;6.764;2023-04-29T02:58:42;38.58;;;19.88;;
26502;SDS011;14177;51.520;6.764;2023-04-29T03:01:09;39.95;;;19.63;;
26502;SDS011;14177;51.520;6.764;2023-04-29T03:03:36;34.33;;;18.30;;
26502;SDS011;14177;51.520;6.764;2023-04-29T03:06:04;36.63;;;19.05;;
26502;SDS011;14177;51.520;6.764;2023-04-29T03:08:31;37.42;;;19.42;;
26502;SDS011;14177;51.520;6.764;2023-04-29T03:10:57;34.97;;;18.33;;
26502;SDS011;14177;51.520;6.764;2023-04-29T03:13:25;40.35;;;19.70;;
26502;SDS011;14177;51.520;6.764;2023-04-29T03:15:52;35.90;;;18.77;;
26502;SDS011;14177;51.520;6.764;2023-04-29T03:18:19;35.38;;;18.58;;
26502;SDS011;14177;51.520;6.764;2023-04-29T03:20:48;35.70;;;18.90;;
26502;SDS011;14177;51.520;6.764;2023-04-29T03:23:15;35.20;;;19.15;;
26502;SDS011;14177;51.520;6.764;2023-04-29T03:25:42;34.13;;;18.27;;
26502;SDS011;14177;51.520;6.764;2023-04-29T03:28:10;39.40;;;18.33;;
26502;SDS011;14177;51.520;6.764;2023-04-29T03:30:37;36.40;;;18.63;;
26502;SDS011;14177;51.520;6.764;2023-04-29T03:33:04;35.03;;;17.17;;
26502;SDS011;14177;51.520;6.764;2023-04-29T03:35:31;35.88;;;19.88;;
26502;SDS011;14177;51.520;6.764;2023-04-29T03:38:37;35.15;;;17.23;;
26502;SDS011;14177;51.520;6.764;2023-04-29T03:41:04;30.55;;;17.27;;
26502;SDS011;14177;51.520;6.764;2023-04-29T03:43:31;31.80;;;17.10;;
26502;SDS011;14177;51.520;6.764;2023-04-29T03:45:58;34.72;;;18.05;;
26502;SDS011;14177;51.520;6.764;2023-04-29T03:48:25;31.83;;;16.15;;
26502;SDS011;14177;51.520;6.764;2023-04-29T03:50:52;34.05;;;17.35;;
26502;SDS011;14177;51.520;6.764;2023-04-29T03:53:20;31.33;;;16.73;;
26502;SDS011;14177;51.520;6.764;2023-04-29T03:55:47;32.55;;;17.20;;
26502;SDS011;14177;51.520;6.764;2023-04-29T03:58:14;29.77;;;16.75;;
26502;SDS011;14177;51.520;6.764;2023-04-29T04:00:42;32.92;;;17.55;;
26502;SDS011;14177;51.520;6.764;2023-04-29T04:03:14;30.50;;;16.75;;
26502;SDS011;14177;51.520;6.764;2023-04-29T04:05:42;29.92;;;16.63;;
26502;SDS011;14177;51.520;6.764;2023-04-29T04:08:12;32.00;;;16.73;;
26502;SDS011;14177;51.520;6.764;2023-04-29T04:11:03;30.15;;;16.42;;
26502;SDS011;14177;51.520;6.764;2023-04-29T04:13:41;29.48;;;16.65;;
26502;SDS011;14177;51.520;6.764;2023-04-29T04:16:09;31.88;;;16.40;;
26502;SDS011;14177;51.520;6.764;2023-04-29T04:18:37;26.17;;;15.65;;
26502;SDS011;14177;51.520;6.764;2023-04-29T04:21:05;32.17;;;17.05;;
26502;SDS011;14177;51.520;6.764;2023-04-29T04:23:38;30.15;;;16.45;;
26502;SDS011;14177;51.520;6.764;2023-04-29T04:26:08;31.23;;;17.00;;
26502;SDS011;14177;51.520;6.764;2023-04-29T04:28:54;30.10;;;15.75;;
26502;SDS011;14177;51.520;6.764;2023-04-29T04:31:42;35.65;;;17.25;;
26502;SDS011;14177;51.520;6.764;2023-04-29T04:34:12;30.15;;;16.33;;
26502;SDS011;14177;51.520;6.764;2023-04-29T04:36:39;38.88;;;19.90;;
26502;SDS011;14177;51.520;6.764;2023-04-29T04:39:07;35.55;;;20.35;;
26502;SDS011;14177;51.520;6.764;2023-04-29T04:41:35;28.45;;;16.40;;
26502;SDS011;14177;51.520;6.764;2023-04-29T04:44:02;27.85;;;16.00;;
26502;SDS011;14177;51.520;6.764;2023-04-29T04:46:39;28.92;;;16.38;;
26502;SDS011;14177;51.520;6.764;2023-04-29T04:49:12;30.85;;;16.88;;
26502;SDS011;14177;51.520;6.764;2023-04-29T04:51:47;28.90;;;17.10;;
26502;SDS011;14177;51.520;6.764;2023-04-29T04:54:14;30.63;;;16.55;;
26502;SDS011;14177;51.520;6.764;2023-04-29T04:56:40;30.90;;;15.65;;
26502;SDS011;14177;51.520;6.764;2023-04-29T04:59:08;27.73;;;16.35;;
26502;SDS011;14177;51.520;6.764;2023-04-29T05:01:36;28.30;;;15.55;;
26502;SDS011;14177;51.520;6.764;2023-04-29T05:04:04;26.90;;;15.68;;
26502;SDS011;14177;51.520;6.764;2023-04-29T05:06:31;27.33;;;16.05;;
26502;SDS011;14177;51.520;6.764;2023-04-29T05:08:58;31.58;;;16.33;;
26502;SDS011;14177;51.520;6.764;2023-04-29T05:11:25;29.73;;;15.45;;
26502;SDS011;14177;51.520;6.764;2023-04-29T05:14:19;29.00;;;15.27;;
26502;SDS011;14177;51.520;6.764;2023-04-29T05:16:46;26.27;;;15.27;;
26502;SDS011;14177;51.520;6.764;2023-04-29T05:19:13;28.13;;;15.70;;
26502;SDS011;14177;51.520;6.764;2023-04-29T05:21:40;28.45;;;15.30;;
26502;SDS011;14177;51.520;6.764;2023-04-29T05:24:09;22.55;;;14.70;;
26502;SDS011;14177;51.520;6.764;2023-04-29T05:26:36;25.33;;;14.68;;
26502;SDS011;14177;51.520;6.764;2023-04-29T05:29:04;26.20;;;14.93;;
26502;SDS011;14177;51.520;6.764;2023-04-29T05:31:40;28.63;;;15.45;;
26502;SDS011;14177;51.520;6.764;2023-04-29T05:34:08;26.65;;;14.90;;
26502;SDS011;14177;51.520;6.764;2023-04-29T05:36:35;23.92;;;13.75;;
26502;SDS011;14177;51.520;6.764;2023-04-29T05:39:02;26.00;;;14.57;;
26502;SDS011;14177;51.520;6.764;2023-04-29T05:41:29;25.73;;;13.90;;
26502;SDS011;14177;51.520;6.764;2023-04-29T05:44:19;25.50;;;14.23;;
26502;SDS011;14177;51.520;6.764;2023-04-29T05:46:46;23.65;;;13.52;;
26502;SDS011;14177;51.520;6.764;2023-04-29T05:49:14;28.42;;;15.27;;
26502;SDS011;14177;51.520;6.764;2023-04-29T05:51:41;26.92;;;14.05;;
26502;SDS011;14177;51.520;6.764;2023-04-29T05:54:08;23.25;;;13.60;;
26502;SDS011;14177;51.520;6.764;2023-04-29T05:56:35;29.23;;;16.42;;
26502;SDS011;14177;51.520;6.764;2023-04-29T05:59:02;27.73;;;15.10;;
26502;SDS011;14177;51.520;6.764;2023-04-29T06:01:30;26.67;;;14.30;;
26502;SDS011;14177;51.520;6.764;2023-04-29T06:03:58;25.13;;;13.52;;
26502;SDS011;14177;51.520;6.764;2023-04-29T06:06:25;24.85;;;13.50;;
26502;SDS011;14177;51.520;6.764;2023-04-29T06:09:01;21.40;;;12.88;;
26502;SDS011;14177;51.520;6.764;2023-04-29T06:11:36;24.42;;;14.35;;
26502;SDS011;14177;51.520;6.764;2023-04-29T06:14:04;22.67;;;13.75;;
26502;SDS011;14177;51.520;6.764;2023-04-29T06:16:31;23.08;;;12.85;;
26502;SDS011;14177;51.520;6.764;2023-04-29T06:18:59;22.90;;;14.30;;
26502;SDS011;14177;51.520;6.764;2023-04-29T06:21:26;23.65;;;14.02;;
26502;SDS011;14177;51.520;6.764;2023-04-29T06:23:53;26.10;;;13.80;;
26502;SDS011;14177;51.520;6.764;2023-04-29T06:26:21;27.67;;;13.23;;
26502;SDS011;14177;51.520;6.764;2023-04-29T06:28:48;22.33;;;13.20;;
26502;SDS011;14177;51.520;6.764;2023-04-29T06:31:16;26.63;;;13.73;;
26502;SDS011;14177;51.520;6.764;2023-04-29T06:33:43;24.20;;;13.68;;
26502;SDS011;14177;51.520;6.764;2023-04-29T06:36:10;23.95;;;14.18;;
26502;SDS011;14177;51.520;6.764;2023-04-29T06:38:57;25.48;;;13.35;;
26502;SDS011;14177;51.520;6.764;2023-04-29T06:41:24;23.08;;;14.02;;
26502;SDS011;14177;51.520;6.764;2023-04-29T06:44:14;24.52;;;12.82;;
26502;SDS011;14177;51.520;6.764;2023-04-29T06:46:50;24.30;;;14.05;;
26502;SDS011;14177;51.520;6.764;2023-04-29T06:49:25;22.88;;;12.57;;
26502;SDS011;14177;51.520;6.764;2023-04-29T06:51:52;23.13;;;13.73;;
26502;SDS011;14177;51.520;6.764;2023-04-29T06:54:19;24.65;;;13.70;;
26502;SDS011;14177;51.520;6.764;2023-04-29T06:56:48;26.55;;;14.32;;
26502;SDS011;14177;51.520;6.764;2023-04-29T06:59:16;21.60;;;13.80;;
26502;SDS011;14177;51.520;6.764;2023-04-29T07:01:43;31.13;;;14.38;;
26502;SDS011;14177;51.520;6.764;2023-04-29T07:04:13;24.08;;;14.07;;
26502;SDS011;14177;51.520;6.764;2023-04-29T07:06:40;23.67;;;13.52;;
26502;SDS011;14177;51.520;6.764;2023-04-29T07:09:07;29.95;;;15.65;;
26502;SDS011;14177;51.520;6.764;2023-04-29T07:11:35;24.27;;;14.75;;
26502;SDS011;14177;51.520;6.764;2023-04-29T07:14:02;24.50;;;14.48;;
26502;SDS011;14177;51.520;6.764;2023-04-29T07:16:29;26.23;;;14.13;;
26502;SDS011;14177;51.520;6.764;2023-04-29T07:18:56;27.38;;;14.30;;
26502;SDS011;14177;51.520;6.764;2023-04-29T07:21:23;30.02;;;14.95;;
26502;SDS011;14177;51.520;6.764;2023-04-29T07:23:51;25.40;;;15.05;;
26502;SDS011;14177;51.520;6.764;2023-04-29T07:26:18;23.85;;;15.15;;
26502;SDS011;14177;51.520;6.764;2023-04-29T07:28:44;28.50;;;15.43;;
26502;SDS011;14177;51.520;6.764;2023-04-29T07:31:13;26.50;;;15.15;;
26502;SDS011;14177;51.520;6.764;2023-04-29T07:33:40;24.65;;;14.68;;
26502;SDS011;14177;51.520;6.764;2023-04-29T07:36:09;26.42;;;15.05;;
26502;SDS011;14177;51.520;6.764;2023-04-29T07:38:36;30.27;;;15.05;;
26502;SDS011;14177;51.520;6.764;2023-04-29T07:41:03;28.52;;;14.80;;
26502;SDS011;14177;51.520;6.764;2023-04-29T07:43:30;30.00;;;14.90;;
26502;SDS011;14177;51.520;6.764;2023-04-29T07:45:58;31.52;;;16.20;;
26502;SDS011;14177;51.520;6.764;2023-04-29T07:48:25;30.40;;;15.15;;
26502;SDS011;14177;51.520;6.764;2023-04-29T07:50:52;28.48;;;15.27;;
26502;SDS011;14177;51.520;6.764;2023-04-29T07:53:19;28.98;;;15.68;;
26502;SDS011;14177;51.520;6.764;2023-04-29T07:55:49;27.63;;;15.23;;
26502;SDS011;14177;51.520;6.764;2023-04-29T07:58:17;30.38;;;16.73;;
26502;SDS011;14177;51.520;6.764;2023-04-29T08:00:44;26.50;;;15.55;;
26502;SDS011;14177;51.520;6.764;2023-04-29T08:03:12;29.42;;;15.52;;
26502;SDS011;14177;51.520;6.764;2023-04-29T08:05:42;24.73;;;14.73;;
26502;SDS011;14177;51.520;6.764;2023-04-29T08:08:14;27.77;;;15.20;;
26502;SDS011;14177;51.520;6.764;2023-04-29T08:10:42;30.63;;;16.00;;
26502;SDS011;14177;51.520;6.764;2023-04-29T08:13:09;25.65;;;15.20;;
26502;SDS011;14177;51.520;6.764;2023-04-29T08:15:36;33.05;;;16.08;;
26502;SDS011;14177;51.520;6.764;2023-04-29T08:18:03;27.05;;;15.48;;
26502;SDS011;14177;51.520;6.764;2023-04-29T08:20:30;25.70;;;14.90;;
26502;SDS011;14177;51.520;6.764;2023-04-29T08:22:57;29.65;;;16.83;;
26502;SDS011;14177;51.520;6.764;2023-04-29T08:25:25;31.00;;;15.57;;
26502;SDS011;14177;51.520;6.764;2023-04-29T08:27:52;38.83;;;17.35;;
26502;SDS011;14177;51.520;6.764;2023-04-29T08:30:19;29.95;;;15.43;;
26502;SDS011;14177;51.520;6.764;2023-04-29T08:32:47;29.00;;;15.45;;
26502;SDS011;14177;51.520;6.764;2023-04-29T08:35:14;27.50;;;16.30;;
26502;SDS011;14177;51.520;6.764;2023-04-29T08:37:41;36.92;;;16.88;;
26502;SDS011;14177;51.520;6.764;2023-04-29T08:40:08;29.88;;;16.38;;
26502;SDS011;14177;51.520;6.764;2023-04-29T08:42:36;27.67;;;15.93;;
26502;SDS011;14177;51.520;6.764;2023-04-29T08:45:03;32.22;;;16.85;;
26502;SDS011;14177;51.520;6.764;2023-04-29T08:47:31;38.72;;;17.88;;
26502;SDS011;14177;51.520;6.764;2023-04-29T08:50:02;32.92;;;16.48;;
26502;SDS011;14177;51.520;6.764;2023-04-29T08:52:31;34.15;;;16.50;;
26502;SDS011;14177;51.520;6.764;2023-04-29T08:54:59;32.35;;;16.65;;
26502;SDS011;14177;51.520;6.764;2023-04-29T08:57:30;31.08;;;16.33;;
26502;SDS011;14177;51.520;6.764;2023-04-29T09:00:08;32.45;;;16.55;;
26502;SDS011;14177;51.520;6.764;2023-04-29T09:02:38;33.72;;;16.33;;
26502;SDS011;14177;51.520;6.764;2023-04-29T09:05:12;29.20;;;16.85;;
26502;SDS011;14177;51.520;6.764;2023-04-29T09:07:40;29.90;;;16.75;;
26502;SDS011;14177;51.520;6.764;2023-04-29T09:10:07;30.42;;;16.08;;
26502;SDS011;14177;51.520;6.764;2023-04-29T09:12:36;27.30;;;15.52;;
26502;SDS011;14177;51.520;6.764;2023-04-29T09:15:03;34.58;;;16.67;;
26502;SDS011;14177;51.520;6.764;2023-04-29T09:17:40;30.30;;;15.80;;
26502;SDS011;14177;51.520;6.764;2023-04-29T09:22:47;26.48;;;15.35;;
26502;SDS011;14177;51.520;6.764;2023-04-29T09:25:19;30.30;;;15.07;;
26502;SDS011;14177;51.520;6.764;2023-04-29T09:27:46;29.05;;;15.68;;
26502;SDS011;14177;51.520;6.764;2023-04-29T09:30:13;33.00;;;16.70;;
26502;SDS011;14177;51.520;6.764;2023-04-29T09:32:42;27.30;;;16.17;;
26502;SDS011;14177;51.520;6.764;2023-04-29T09:35:31;25.98;;;15.93;;
26502;SDS011;14177;51.520;6.764;2023-04-29T09:38:07;27.52;;;15.73;;
26502;SDS011;14177;51.520;6.764;2023-04-29T09:40:36;30.13;;;15.65;;
26502;SDS011;14177;51.520;6.764;2023-04-29T09:43:22;27.75;;;14.65;;
26502;SDS011;14177;51.520;6.764;2023-04-29T09:45:49;23.83;;;14.48;;
26502;SDS011;14177;51.520;6.764;2023-04-29T09:48:16;25.90;;;15.30;;
26502;SDS011;14177;51.520;6.764;2023-04-29T09:50:43;28.33;;;15.65;;
26502;SDS011;14177;51.520;6.764;2023-04-29T09:53:30;29.33;;;14.60;;
26502;SDS011;14177;51.520;6.764;2023-04-29T09:58:29;24.60;;;16.23;;
26502;SDS011;14177;51.520;6.764;2023-04-29T10:01:05;25.27;;;15.57;;
26502;SDS011;14177;51.520;6.764;2023-04-29T10:03:36;26.60;;;16.02;;
26502;SDS011;14177;51.520;6.764;2023-04-29T10:06:05;25.38;;;15.40;;
26502;SDS011;14177;51.520;6.764;2023-04-29T10:08:33;22.92;;;14.13;;
26502;SDS011;14177;51.520;6.764;2023-04-29T10:11:01;24.83;;;14.75;;
26502;SDS011;14177;51.520;6.764;2023-04-29T10:13:29;25.88;;;15.27;;
26502;SDS011;14177;51.520;6.764;2023-04-29T10:16:05;24.95;;;14.50;;
26502;SDS011;14177;51.520;6.764;2023-04-29T10:18:59;27.73;;;14.60;;
26502;SDS011;14177;51.520;6.764;2023-04-29T10:21:32;27.77;;;15.07;;
26502;SDS011;14177;51.520;6.764;2023-04-29T10:24:00;26.77;;;14.02;;
26502;SDS011;14177;51.520;6.764;2023-04-29T10:26:29;23.40;;;14.77;;
26502;SDS011;14177;51.520;6.764;2023-04-29T10:28:58;23.13;;;14.30;;
26502;SDS011;14177;51.520;6.764;2023-04-29T10:31:26;26.52;;;15.38;;
26502;SDS011;14177;51.520;6.764;2023-04-29T10:33:56;22.90;;;14.27;;
26502;SDS011;14177;51.520;6.764;2023-04-29T10:36:24;24.27;;;14.50;;
26502;SDS011;14177;51.520;6.764;2023-04-29T10:38:55;24.67;;;14.85;;
26502;SDS011;14177;51.520;6.764;2023-04-29T10:41:47;21.27;;;13.63;;
26502;SDS011;14177;51.520;6.764;2023-04-29T10:44:16;25.77;;;14.77;;
26502;SDS011;14177;51.520;6.764;2023-04-29T10:46:43;23.45;;;13.38;;
26502;SDS011;14177;51.520;6.764;2023-04-29T10:49:11;21.88;;;13.25;;
26502;SDS011;14177;51.520;6.764;2023-04-29T10:51:39;23.83;;;13.95;;
26502;SDS011;14177;51.520;6.764;2023-04-29T10:56:47;19.90;;;13.43;;
26502;SDS011;14177;51.520;6.764;2023-04-29T10:59:20;27.15;;;13.90;;
26502;SDS011;14177;51.520;6.764;2023-04-29T11:02:08;20.80;;;14.13;;
26502;SDS011;14177;51.520;6.764;2023-04-29T11:05:05;22.48;;;12.98;;
26502;SDS011;14177;51.520;6.764;2023-04-29T11:07:34;23.25;;;13.73;;
26502;SDS011;14177;51.520;6.764;2023-04-29T11:10:01;23.75;;;12.85;;
26502;SDS011;14177;51.520;6.764;2023-04-29T11:12:29;21.35;;;12.95;;
26502;SDS011;14177;51.520;6.764;2023-04-29T11:14:57;23.55;;;12.95;;
26502;SDS011;14177;51.520;6.764;2023-04-29T11:17:36;20.35;;;13.32;;
26502;SDS011;14177;51.520;6.764;2023-04-29T11:20:08;17.38;;;12.90;;
26502;SDS011;14177;51.520;6.764;2023-04-29T11:22:40;18.85;;;13.20;;
26502;SDS011;14177;51.520;6.764;2023-04-29T11:25:16;22.08;;;12.90;;
26502;SDS011;14177;51.520;6.764;2023-04-29T11:27:43;21.73;;;12.23;;
26502;SDS011;14177;51.520;6.764;2023-04-29T11:30:14;19.08;;;12.75;;
26502;SDS011;14177;51.520;6.764;2023-04-29T11:32:44;18.45;;;11.88;;
26502;SDS011;14177;51.520;6.764;2023-04-29T11:35:12;21.02;;;12.32;;
26502;SDS011;14177;51.520;6.764;2023-04-29T11:37:42;18.55;;;12.73;;
26502;SDS011;14177;51.520;6.764;2023-04-29T11:40:12;20.23;;;12.77;;
26502;SDS011;14177;51.520;6.764;2023-04-29T11:42:47;20.73;;;11.70;;
26502;SDS011;14177;51.520;6.764;2023-04-29T11:47:43;14.95;;;10.07;;
26502;SDS011;14177;51.520;6.764;2023-04-29T11:50:13;12.95;;;9.48;;
26502;SDS011;14177;51.520;6.764;2023-04-29T11:52:46;14.68;;;9.10;;
26502;SDS011;14177;51.520;6.764;2023-04-29T11:55:14;12.85;;;8.60;;
26502;SDS011;14177;51.520;6.764;2023-04-29T11:57:41;16.60;;;10.07;;
26502;SDS011;14177;51.520;6.764;2023-04-29T12:00:09;15.30;;;9.82;;
26502;SDS011;14177;51.520;6.764;2023-04-29T12:02:38;17.48;;;9.88;;
26502;SDS011;14177;51.520;6.764;2023-04-29T12:05:13;13.52;;;9.00;;
26502;SDS011;14177;51.520;6.764;2023-04-29T12:07:41;15.77;;;8.80;;
26502;SDS011;14177;51.520;6.764;2023-04-29T12:10:09;15.45;;;8.05;;
26502;SDS011;14177;51.520;6.764;2023-04-29T12:12:40;12.77;;;9.02;;
26502;SDS011;14177;51.520;6.764;2023-04-29T12:15:11;13.70;;;8.73;;
26502;SDS011;14177;51.520;6.764;2023-04-29T12:17:39;13.68;;;8.32;;
26502;SDS011;14177;51.520;6.764;2023-04-29T12:20:08;14.02;;;9.15;;
26502;SDS011;14177;51.520;6.764;2023-04-29T12:22:37;15.15;;;8.52;;
26502;SDS011;14177;51.520;6.764;2023-04-29T12:25:05;13.95;;;8.13;;
26502;SDS011;14177;51.520;6.764;2023-04-29T12:27:33;13.10;;;8.35;;
26502;SDS011;14177;51.520;6.764;2023-04-29T12:30:05;15.07;;;8.68;;
26502;SDS011;14177;51.520;6.764;2023-04-29T12:32:35;13.60;;;9.18;;
26502;SDS011;14177;51.520;6.764;2023-04-29T12:35:02;12.05;;;7.97;;
26502;SDS011;14177;51.520;6.764;2023-04-29T12:37:31;14.43;;;8.95;;
26502;SDS011;14177;51.520;6.764;2023-04-29T12:39:59;18.10;;;9.35;;
26502;SDS011;14177;51.520;6.764;2023-04-29T12:42:30;12.55;;;7.88;;
26502;SDS011;14177;51.520;6.764;2023-04-29T12:44:59;11.10;;;7.85;;
26502;SDS011;14177;51.520;6.764;2023-04-29T12:47:30;12.93;;;7.25;;
26502;SDS011;14177;51.520;6.764;2023-04-29T12:50:02;12.20;;;7.85;;
26502;SDS011;14177;51.520;6.764;2023-04-29T12:52:32;9.65;;;7.30;;
26502;SDS011;14177;51.520;6.764;2023-04-29T12:55:02;12.27;;;7.35;;
26502;SDS011;14177;51.520;6.764;2023-04-29T12:57:29;11.80;;;8.07;;
26502;SDS011;14177;51.520;6.764;2023-04-29T12:59:56;14.20;;;8.05;;
26502;SDS011;14177;51.520;6.764;2023-04-29T13:02:23;11.40;;;6.97;;
26502;SDS011;14177;51.520;6.764;2023-04-29T13:04:51;13.57;;;7.57;;
26502;SDS011;14177;51.520;6.764;2023-04-29T13:07:19;12.65;;;7.47;;
26502;SDS011;14177;51.520;6.764;2023-04-29T13:09:46;9.93;;;7.65;;
26502;SDS011;14177;51.520;6.764;2023-04-29T13:12:13;10.05;;;7.05;;
26502;SDS011;14177;51.520;6.764;2023-04-29T13:14:39;11.68;;;7.40;;
26502;SDS011;14177;51.520;6.764;2023-04-29T13:17:06;11.55;;;6.60;;
26502;SDS011;14177;51.520;6.764;2023-04-29T13:19:33;9.32;;;6.63;;
26502;SDS011;14177;51.520;6.764;2023-04-29T13:22:04;8.90;;;6.82;;
26502;SDS011;14177;51.520;6.764;2023-04-29T13:24:31;9.30;;;6.30;;
26502;SDS011;14177;51.520;6.764;2023-04-29T13:27:01;11.38;;;6.43;;
26502;SDS011;14177;51.520;6.764;2023-04-29T13:29:31;10.32;;;6.82;;
26502;SDS011;14177;51.520;6.764;2023-04-29T13:31:58;10.90;;;6.75;;
26502;SDS011;14177;51.520;6.764;2023-04-29T13:34:25;11.18;;;7.13;;
26502;SDS011;14177;51.520;6.764;2023-04-29T13:36:52;11.98;;;6.90;;
26502;SDS011;14177;51.520;6.764;2023-04-29T13:39:19;12.18;;;7.10;;
26502;SDS011;14177;51.520;6.764;2023-04-29T13:41:48;10.00;;;6.43;;
26502;SDS011;14177;51.520;6.764;2023-04-29T13:44:15;10.93;;;6.75;;
26502;SDS011;14177;51.520;6.764;2023-04-29T13:46:56;11.35;;;6.32;;
26502;SDS011;14177;51.520;6.764;2023-04-29T13:49:23;8.13;;;5.50;;
26502;SDS011;14177;51.520;6.764;2023-04-29T13:52:10;9.75;;;6.20;;
26502;SDS011;14177;51.520;6.764;2023-04-29T13:54:58;9.07;;;5.88;;
26502;SDS011;14177;51.520;6.764;2023-04-29T13:57:44;10.70;;;5.53;;
26502;SDS011;14177;51.520;6.764;2023-04-29T14:00:15;9.98;;;5.75;;
26502;SDS011;14177;51.520;6.764;2023-04-29T14:02:46;8.85;;;5.32;;
26502;SDS011;14177;51.520;6.764;2023-04-29T14:05:23;8.05;;;5.47;;
26502;SDS011;14177;51.520;6.764;2023-04-29T14:07:51;10.25;;;6.15;;
26502;SDS011;14177;51.520;6.764;2023-04-29T14:10:18;11.70;;;6.38;;
26502;SDS011;14177;51.520;6.764;2023-04-29T14:12:45;11.13;;;5.75;;
26502;SDS011;14177;51.520;6.764;2023-04-29T14:15:12;11.98;;;5.60;;
26502;SDS011;14177;51.520;6.764;2023-04-29T14:17:40;12.13;;;6.60;;
26502;SDS011;14177;51.520;6.764;2023-04-29T14:20:07;10.23;;;6.78;;
26502;SDS011;14177;51.520;6.764;2023-04-29T14:22:34;9.25;;;6.95;;
26502;SDS011;14177;51.520;6.764;2023-04-29T14:25:01;9.55;;;6.65;;
26502;SDS011;14177;51.520;6.764;2023-04-29T14:27:28;12.23;;;7.28;;
26502;SDS011;14177;51.520;6.764;2023-04-29T14:29:55;15.95;;;7.45;;
26502;SDS011;14177;51.520;6.764;2023-04-29T14:32:22;12.23;;;7.05;;
26502;SDS011;14177;51.520;6.764;2023-04-29T14:34:49;12.35;;;7.10;;
26502;SDS011;14177;51.520;6.764;2023-04-29T14:37:16;13.13;;;6.55;;
26502;SDS011;14177;51.520;6.764;2023-04-29T14:39:43;10.43;;;6.28;;
26502;SDS011;14177;51.520;6.764;2023-04-29T14:42:10;9.93;;;6.43;;
26502;SDS011;14177;51.520;6.764;2023-04-29T14:44:38;8.93;;;5.97;;
26502;SDS011;14177;51.520;6.764;2023-04-29T14:47:04;9.57;;;5.22;;
26502;SDS011;14177;51.520;6.764;2023-04-29T14:49:32;8.50;;;5.60;;
26502;SDS011;14177;51.520;6.764;2023-04-29T14:51:59;10.45;;;5.93;;
26502;SDS011;14177;51.520;6.764;2023-04-29T14:54:26;8.07;;;5.50;;
26502;SDS011;14177;51.520;6.764;2023-04-29T14:56:53;9.60;;;5.25;;
26502;SDS011;14177;51.520;6.764;2023-04-29T14:59:20;8.93;;;5.88;;
26502;SDS011;14177;51.520;6.764;2023-04-29T15:01:47;10.45;;;5.38;;
26502;SDS011;14177;51.520;6.764;2023-04-29T15:04:14;8.18;;;5.22;;
26502;SDS011;14177;51.520;6.764;2023-04-29T15:06:41;10.88;;;5.72;;
26502;SDS011;14177;51.520;6.764;2023-04-29T15:09:08;9.77;;;5.78;;
26502;SDS011;14177;51.520;6.764;2023-04-29T15:11:35;9.07;;;5.10;;